ADDS METAR Data INFO
IDs: Format: Raw Decoded Include TAF

Data at: 1957 UTC 15 Dec 2017

KRSL 151953Z AUTO 23018G21KT 10SM CLR 12/M04 A2998 RMK AO2 SLP164 T01221044
KRSL 151853Z AUTO 22015KT 10SM CLR 09/M04 A3002 RMK AO2 SLP177 T00941039
KRSL 151753Z AUTO 22013KT 10SM CLR 06/M04 A3006 RMK AO2 SLP193 T00611039 10061 21089 58018
KRSL 151653Z AUTO 23013KT 10SM CLR 03/M04 A3011 RMK AO2 SLP211 T00281039
KRSL 151553Z AUTO 21011KT 10SM CLR M02/M05 A3011 RMK AO2 SLP216 T10221050
KRSL 151453Z AUTO 21011KT 10SM CLR M06/M07 A3012 RMK AO2 SLP223 T10611067 58018
KRSL 151353Z AUTO 24010KT 10SM CLR M07/M08 A3014 RMK AO2 SLP230 T10721078
KRSL 151253Z AUTO 20007KT 10SM CLR M08/M09 A3016 RMK AO2 SLP234 T10831089
KRSL 151153Z AUTO 23006KT 10SM CLR M08/M09 A3017 RMK AO2 SLP239 T10831089 11011 21083 58012
KRSL 151053Z AUTO 24005KT 10SM CLR M08/M08 A3020 RMK AO2 SLP245 T10781083
KRSL 150953Z AUTO 28006KT 10SM CLR M05/M06 A3020 RMK AO2 SLP245 T10501056
KRSL 150853Z AUTO 28006KT 10SM CLR M04/M04 A3021 RMK AO2 SLP247 T10391044 55001
KRSL 150753Z AUTO 29006KT 10SM CLR M04/M05 A3021 RMK AO2 SLP245 T10441050
KRSL 150653Z AUTO 30008KT 10SM CLR M03/M04 A3021 RMK AO2 SLP244 T10331044
KRSL 150553Z AUTO 31009KT 10SM FEW060 M01/M02 A3021 RMK AO2 SLP243 T10111022 10044 21022 400891033 51005
KRSL 150453Z AUTO 32006KT 10SM FEW042 OVC060 01/M01 A3021 RMK AO2 SLP243 T00061011
KRSL 150436Z AUTO 33008KT 10SM FEW025 BKN042 OVC055 01/M02 A3021 RMK AO2 T00061017
KRSL 150429Z AUTO 33010KT 10SM BKN028 OVC036 01/M02 A3022 RMK AO2 T00061017
KRSL 150353Z AUTO 32009KT 10SM FEW029 BKN045 BKN070 M01/M02 A3021 RMK AO2 SLP246 T10061022
KRSL 150253Z AUTO 32008KT 10SM CLR M02/M03 A3020 RMK AO2 SLP246 T10221033 51018
KRSL 150153Z AUTO 34012KT 10SM FEW049 02/M01 A3018 RMK AO2 SLP240 T00171011
KRSL 150053Z AUTO 34015KT 10SM BKN050 03/M01 A3017 RMK AO2 SLP235 T00331006
KRSL 142353Z AUTO 35017KT 10SM OVC055 04/M01 A3014 RMK AO2 PK WND 35027/2315 SLP225 60000 T00391006 10089 20039 53018
KRSL 142253Z AUTO 34021G25KT 10SM FEW035 BKN048 06/M01 A3011 RMK AO2 SLP212 T00561006
KRSL 142153Z AUTO 33012KT 10SM SCT031 BKN060 OVC095 06/02 A3010 RMK AO2 RAE35 SLP205 P0000 T00560017
KRSL 142053Z AUTO 34015KT 10SM -RA OVC046 06/01 A3009 RMK AO2 RAB50 SLP200 P0000 60000 T00610006 55006
KRSL 141953Z AUTO 33011KT 10SM BKN046 OVC060 08/M01 A3008 RMK AO2 SLP196 T00781011
KRSL 141853Z AUTO 31014KT 10SM BKN042 OVC050 08/00 A3009 RMK AO2 SLP201 T00780000
KRSL 141753Z AUTO 31013KT 10SM FEW038 BKN090 BKN110 09/M01 A3011 RMK AO2 SLP207 T00891006 10089 21033 58003
KRSL 141653Z AUTO 31011KT 10SM BKN090 07/M02 A3013 RMK AO2 SLP216 T00671017
KRSL 141553Z AUTO 29010KT 10SM CLR 04/M03 A3012 RMK AO2 SLP214 T00391033
KRSL 141453Z AUTO 26005KT 10SM FEW070 00/M04 A3012 RMK AO2 SLP216 T00001039 53003
KRSL 141353Z AUTO 25006KT 10SM CLR M03/M05 A3011 RMK AO2 SLP215 T10331050
KRSL 141253Z AUTO 28004KT 10SM FEW090 M02/M05 A3011 RMK AO2 SLP211 T10221050
KRSL 141153Z AUTO 29007KT 10SM BKN090 M03/M06 A3011 RMK AO2 SLP212 T10331056 10022 21033 53012
KRSL 141053Z AUTO 33004KT 10SM FEW120 M01/M04 A3010 RMK AO2 SLP201 T10111044
KRSL 140953Z AUTO 34006KT 10SM SCT120 01/M04 A3008 RMK AO2 SLP194 T00061039
KRSL 140853Z AUTO 36006KT 10SM CLR 02/M04 A3007 RMK AO2 SLP188 T00171039 51014